Doris Moran — WRU2125 — position and weather

sailwx.info

Track history (hours):
 
Tides and Currents Weather Stations Pressure Air Temp Water Temp Dewpoint Dewpoint Depression Visibility Wind Speed Wind Dir Waves Ship Positions

Doris Moran

Owner: MORAN TOWING CORPORATION, New Canaan, CT. More information available from US FCC via Universal Licensing System and Coast Guard Vessel Documentation Center.

Last reported at 2016-Aug-25 16:17 UTC. Time now 2016-Aug-25 22:01 UTC.
Position N 39°13' W 076°28'.

Length 151 m; draft 5.3 m.

Type: . MMSI: 366939790.

Date/timePositionNaut miles runAvg speedWind from/ knotsBaromVisibWave heightAir tempDewpointWater temp
2016-Aug-25 16:17N 39°13' W 076°28'0 0.0
2016-Aug-25 10:06N 39°13' W 076°28'0 0.0
2016-Aug-25 07:13N 39°13' W 076°28'0 0.0
2016-Aug-25 04:31N 39°13' W 076°28'0 0.0
2016-Aug-25 03:32N 39°13' W 076°28'0 0.0
2016-Aug-25 02:26N 39°13' W 076°28'0 0.0
2016-Aug-25 01:31N 39°13' W 076°28'0 0.0
2016-Aug-24 22:26N 39°13' W 076°28'25 6.5
2016-Aug-24 18:33N 39°26' W 076°00'9 9.2
2016-Aug-24 17:33N 39°32' W 075°51'8 7.8
2016-Aug-24 16:34N 39°33' W 075°41'6 6.3
2016-Aug-24 15:34N 39°32' W 075°33'8 7.5
2016-Aug-24 14:33N 39°25' W 075°30'8 7.5
2016-Aug-24 13:34N 39°19' W 075°24'7 6.9
2016-Aug-24 12:34N 39°14' W 075°18'7 6.6
2016-Aug-24 11:32N 39°08' W 075°14'7 6.9
2016-Aug-24 10:29N 39°01' W 075°09'6 7.1
2016-Aug-24 09:34N 38°56' W 075°05'5 4.5
2016-Aug-24 08:33N 38°51' W 075°03'6 6.4
2016-Aug-24 07:34N 38°48' W 074°56'8 8.2
2016-Aug-24 06:33N 38°53' W 074°47'48 9.5
2016-Aug-24 01:33N 39°29' W 074°07'1110.7
2016-Aug-24 00:33N 39°38' W 074°00'1110.8
2016-Aug-23 23:32N 39°49' W 073°58'4110.2
2016-Aug-23 19:33N 40°30' W 073°56'9 8.7
2016-Aug-23 18:34N 40°37' W 074°03'3 3.0
2016-Aug-23 17:34N 40°39' W 074°06'0 0.0
2016-Aug-23 16:34N 40°39' W 074°06'0 0.0
2016-Aug-23 15:33N 40°39' W 074°06'0 0.0
2016-Aug-23 14:33N 40°39' W 074°06'0 0.0
2016-Aug-23 13:34N 40°39' W 074°06'0 0.0
2016-Aug-23 12:34N 40°39' W 074°06'0 0.0
2016-Aug-23 11:33N 40°39' W 074°06'0 0.0
2016-Aug-23 10:33N 40°39' W 074°06'0 0.0
2016-Aug-23 09:33N 40°39' W 074°06'0 0.0
2016-Aug-23 08:33N 40°39' W 074°06'0 0.0
2016-Aug-23 07:33N 40°39' W 074°06'0 0.0
2016-Aug-23 06:34N 40°39' W 074°06'0 0.0
2016-Aug-23 05:34N 40°39' W 074°06'0 0.0
2016-Aug-23 04:34N 40°39' W 074°06'0 0.0
2016-Aug-23 03:34N 40°39' W 074°06'0 0.0
2016-Aug-23 02:34N 40°39' W 074°06'0 0.0
2016-Aug-23 01:33N 40°39' W 074°06'0 0.0
2016-Aug-23 00:33N 40°39' W 074°06'0 0.0
2016-Aug-22 23:34N 40°39' W 074°06'2 0.8
2016-Aug-22 21:32N 40°38' W 074°08'2 1.6
2016-Aug-22 20:33N 40°39' W 074°06'0 0.0
2016-Aug-22 19:34N 40°39' W 074°06'0 0.0
2016-Aug-22 18:34N 40°39' W 074°06'0 0.0
2016-Aug-22 17:34N 40°39' W 074°06'0 0.0
2016-Aug-22 16:34N 40°39' W 074°06'1 1.3
2016-Aug-22 15:34N 40°39' W 074°04'5 4.9
2016-Aug-22 14:34N 40°43' W 074°01'3 3.0
2016-Aug-22 13:33N 40°46' W 074°00'5 4.8
2016-Aug-22 12:33N 40°42' W 074°01'6 5.7
2016-Aug-22 11:29N 40°47' W 073°56'58 7.3
2016-Aug-22 03:33N 41°06' W 072°45'9 8.8
2016-Aug-22 02:34N 41°08' W 072°33'9 9.2
2016-Aug-22 01:34N 41°11' W 072°21'90 8.6
2016-Aug-21 15:05N 41°46' W 070°31'3 6.1
2016-Aug-21 14:33N 41°48' W 070°28'18 9.0
2016-Aug-21 12:34N 42°06' W 070°32'10 9.7
2016-Aug-21 11:33N 42°15' W 070°38'10 9.9
2016-Aug-21 10:33N 42°21' W 070°48'8 7.9
2016-Aug-21 09:33N 42°20' W 070°58'5 4.5
2016-Aug-21 08:33N 42°23' W 071°03'1 0.6
2016-Aug-21 07:33N 42°23' W 071°04'0 0.0
2016-Aug-21 06:33N 42°23' W 071°04'0 0.0
2016-Aug-21 05:33N 42°23' W 071°04'1 0.6
2016-Aug-21 04:30N 42°23' W 071°03'0 0.0
2016-Aug-21 03:33N 42°23' W 071°03'0 0.0
2016-Aug-21 02:33N 42°23' W 071°03'0 0.0
2016-Aug-21 01:34N 42°23' W 071°03'1 0.6
2016-Aug-21 00:33N 42°23' W 071°04'0 0.1
2016-Aug-20 23:33N 42°23' W 071°03'5 4.7
2016-Aug-20 22:33N 42°20' W 070°58'4 3.6
2016-Aug-20 21:34N 42°22' W 070°55'8 7.7
2016-Aug-20 20:33N 42°20' W 070°45'10 9.8
2016-Aug-20 19:33N 42°13' W 070°36'10 9.8
2016-Aug-20 18:33N 42°04' W 070°30'1010.0
2016-Aug-20 17:33N 41°54' W 070°28'6 5.4
2016-Aug-20 16:31N 41°49' W 070°27'39 8.7
2016-Aug-20 12:04N 41°24' W 071°06'5810.5
2016-Aug-20 06:33N 41°11' W 072°22'1110.7
2016-Aug-20 05:33N 41°10' W 072°36'61 2.3
2016-Aug-19 03:33N 40°48' W 073°51'5 5.0
2016-Aug-19 02:33N 40°46' W 073°57'6 5.7
2016-Aug-19 01:33N 40°41' W 074°01'5 5.0
2016-Aug-19 00:33N 40°36' W 074°03'8 8.1
2016-Aug-18 23:33N 40°30' W 073°56'40 7.9
2016-Aug-18 18:33N 39°50' W 073°58'9 9.2
2016-Aug-18 17:33N 39°41' W 073°59'9 9.1
2016-Aug-18 16:33N 39°32' W 074°03'38 9.3
2016-Aug-18 12:26N 39°03' W 074°36'8 8.8
2016-Aug-18 11:32N 38°58' W 074°43'9 8.7
2016-Aug-18 10:31N 38°51' W 074°50'10 7.0
2016-Aug-18 09:06N 38°50' W 075°02'6 6.5
2016-Aug-18 08:14N 38°55' W 075°05'4 6.2
2016-Aug-18 07:34N 38°59' W 075°08'1311.3
2016-Aug-18 06:22N 39°11' W 075°16'911.4
2016-Aug-18 05:33N 39°18' W 075°23'1010.0
2016-Aug-18 04:34N 39°26' W 075°32'8 7.8
2016-Aug-18 03:33N 39°33' W 075°32'7 7.3
2016-Aug-18 02:33N 39°33' W 075°42'8 8.3
2016-Aug-18 01:33N 39°31' W 075°53'10 9.6
2016-Aug-18 00:33N 39°25' W 076°02'1010.1
2016-Aug-17 23:33N 39°19' W 076°13'11 9.7
2016-Aug-17 22:27N 39°10' W 076°19'7 7.9
2016-Aug-17 21:33N 39°11' W 076°27'1 0.1
2016-Aug-17 07:30N 39°13' W 076°28'0 0.0
2016-Aug-17 02:33N 39°13' W 076°28'0 0.0
2016-Aug-16 13:14N 39°13' W 076°28'0 0.0
2016-Aug-16 12:33N 39°13' W 076°28'0 0.0
2016-Aug-16 11:33N 39°13' W 076°28'0 0.0
2016-Aug-16 10:30N 39°13' W 076°28'0 0.0
2016-Aug-16 09:23N 39°13' W 076°28'0 0.0
2016-Aug-16 08:21N 39°13' W 076°28'0 0.0
2016-Aug-16 07:23N 39°13' W 076°28'0 0.0
2016-Aug-16 04:32N 39°13' W 076°28'0 0.0
2016-Aug-16 03:18N 39°13' W 076°28'  
Track history (hours):
 
Tides and Currents Weather Stations Pressure Air Temp Water Temp Dewpoint Dewpoint Depression Visibility Wind Speed Wind Dir Waves Ship Positions

Doris Moran

Owner: MORAN TOWING CORPORATION, New Canaan, CT. More information available from US FCC via Universal Licensing System and Coast Guard Vessel Documentation Center.

Last reported at 2016-Aug-25 16:17 UTC. Time now 2016-Aug-25 22:01 UTC.
Position N 39°13' W 076°28'.

Length 151 m; draft 5.3 m.

Type: . MMSI: 366939790.

Date/timePositionNaut miles runAvg speedWind from/ knotsBaromVisibWave heightAir tempDewpointWater temp
2016-Aug-25 16:17N 39°13' W 076°28'0 0.0
2016-Aug-25 10:06N 39°13' W 076°28'0 0.0
2016-Aug-25 07:13N 39°13' W 076°28'0 0.0
2016-Aug-25 04:31N 39°13' W 076°28'0 0.0
2016-Aug-25 03:32N 39°13' W 076°28'0 0.0
2016-Aug-25 02:26N 39°13' W 076°28'0 0.0
2016-Aug-25 01:31N 39°13' W 076°28'0 0.0
2016-Aug-24 22:26N 39°13' W 076°28'25 6.5
2016-Aug-24 18:33N 39°26' W 076°00'9 9.2
2016-Aug-24 17:33N 39°32' W 075°51'8 7.8
2016-Aug-24 16:34N 39°33' W 075°41'6 6.3
2016-Aug-24 15:34N 39°32' W 075°33'8 7.5
2016-Aug-24 14:33N 39°25' W 075°30'8 7.5
2016-Aug-24 13:34N 39°19' W 075°24'7 6.9
2016-Aug-24 12:34N 39°14' W 075°18'7 6.6
2016-Aug-24 11:32N 39°08' W 075°14'7 6.9
2016-Aug-24 10:29N 39°01' W 075°09'6 7.1
2016-Aug-24 09:34N 38°56' W 075°05'5 4.5
2016-Aug-24 08:33N 38°51' W 075°03'6 6.4
2016-Aug-24 07:34N 38°48' W 074°56'8 8.2
2016-Aug-24 06:33N 38°53' W 074°47'48 9.5
2016-Aug-24 01:33N 39°29' W 074°07'1110.7
2016-Aug-24 00:33N 39°38' W 074°00'1110.8
2016-Aug-23 23:32N 39°49' W 073°58'4110.2
2016-Aug-23 19:33N 40°30' W 073°56'9 8.7
2016-Aug-23 18:34N 40°37' W 074°03'3 3.0
2016-Aug-23 17:34N 40°39' W 074°06'0 0.0
2016-Aug-23 16:34N 40°39' W 074°06'0 0.0
2016-Aug-23 15:33N 40°39' W 074°06'0 0.0
2016-Aug-23 14:33N 40°39' W 074°06'0 0.0
2016-Aug-23 13:34N 40°39' W 074°06'0 0.0
2016-Aug-23 12:34N 40°39' W 074°06'0 0.0
2016-Aug-23 11:33N 40°39' W 074°06'0 0.0
2016-Aug-23 10:33N 40°39' W 074°06'0 0.0
2016-Aug-23 09:33N 40°39' W 074°06'0 0.0
2016-Aug-23 08:33N 40°39' W 074°06'0 0.0
2016-Aug-23 07:33N 40°39' W 074°06'0 0.0
2016-Aug-23 06:34N 40°39' W 074°06'0 0.0
2016-Aug-23 05:34N 40°39' W 074°06'0 0.0
2016-Aug-23 04:34N 40°39' W 074°06'0 0.0
2016-Aug-23 03:34N 40°39' W 074°06'0 0.0
2016-Aug-23 02:34N 40°39' W 074°06'0 0.0
2016-Aug-23 01:33N 40°39' W 074°06'0 0.0
2016-Aug-23 00:33N 40°39' W 074°06'0 0.0
2016-Aug-22 23:34N 40°39' W 074°06'2 0.8
2016-Aug-22 21:32N 40°38' W 074°08'2 1.6
2016-Aug-22 20:33N 40°39' W 074°06'0 0.0
2016-Aug-22 19:34N 40°39' W 074°06'0 0.0
2016-Aug-22 18:34N 40°39' W 074°06'0 0.0
2016-Aug-22 17:34N 40°39' W 074°06'0 0.0
2016-Aug-22 16:34N 40°39' W 074°06'1 1.3
2016-Aug-22 15:34N 40°39' W 074°04'5 4.9
2016-Aug-22 14:34N 40°43' W 074°01'3 3.0
2016-Aug-22 13:33N 40°46' W 074°00'5 4.8
2016-Aug-22 12:33N 40°42' W 074°01'6 5.7
2016-Aug-22 11:29N 40°47' W 073°56'58 7.3
2016-Aug-22 03:33N 41°06' W 072°45'9 8.8
2016-Aug-22 02:34N 41°08' W 072°33'9 9.2
2016-Aug-22 01:34N 41°11' W 072°21'90 8.6
2016-Aug-21 15:05N 41°46' W 070°31'3 6.1
2016-Aug-21 14:33N 41°48' W 070°28'18 9.0
2016-Aug-21 12:34N 42°06' W 070°32'10 9.7
2016-Aug-21 11:33N 42°15' W 070°38'10 9.9
2016-Aug-21 10:33N 42°21' W 070°48'8 7.9
2016-Aug-21 09:33N 42°20' W 070°58'5 4.5
2016-Aug-21 08:33N 42°23' W 071°03'1 0.6
2016-Aug-21 07:33N 42°23' W 071°04'0 0.0
2016-Aug-21 06:33N 42°23' W 071°04'0 0.0
2016-Aug-21 05:33N 42°23' W 071°04'1 0.6
2016-Aug-21 04:30N 42°23' W 071°03'0 0.0
2016-Aug-21 03:33N 42°23' W 071°03'0 0.0
2016-Aug-21 02:33N 42°23' W 071°03'0 0.0
2016-Aug-21 01:34N 42°23' W 071°03'1 0.6
2016-Aug-21 00:33N 42°23' W 071°04'0 0.1
2016-Aug-20 23:33N 42°23' W 071°03'5 4.7
2016-Aug-20 22:33N 42°20' W 070°58'4 3.6
2016-Aug-20 21:34N 42°22' W 070°55'8 7.7
2016-Aug-20 20:33N 42°20' W 070°45'10 9.8
2016-Aug-20 19:33N 42°13' W 070°36'10 9.8
2016-Aug-20 18:33N 42°04' W 070°30'1010.0
2016-Aug-20 17:33N 41°54' W 070°28'6 5.4
2016-Aug-20 16:31N 41°49' W 070°27'39 8.7
2016-Aug-20 12:04N 41°24' W 071°06'5810.5
2016-Aug-20 06:33N 41°11' W 072°22'1110.7
2016-Aug-20 05:33N 41°10' W 072°36'61 2.3
2016-Aug-19 03:33N 40°48' W 073°51'5 5.0
2016-Aug-19 02:33N 40°46' W 073°57'6 5.7
2016-Aug-19 01:33N 40°41' W 074°01'5 5.0
2016-Aug-19 00:33N 40°36' W 074°03'8 8.1
2016-Aug-18 23:33N 40°30' W 073°56'40 7.9
2016-Aug-18 18:33N 39°50' W 073°58'9 9.2
2016-Aug-18 17:33N 39°41' W 073°59'9 9.1
2016-Aug-18 16:33N 39°32' W 074°03'38 9.3
2016-Aug-18 12:26N 39°03' W 074°36'8 8.8
2016-Aug-18 11:32N 38°58' W 074°43'9 8.7
2016-Aug-18 10:31N 38°51' W 074°50'10 7.0
2016-Aug-18 09:06N 38°50' W 075°02'6 6.5
2016-Aug-18 08:14N 38°55' W 075°05'4 6.2
2016-Aug-18 07:34N 38°59' W 075°08'1311.3
2016-Aug-18 06:22N 39°11' W 075°16'911.4
2016-Aug-18 05:33N 39°18' W 075°23'1010.0
2016-Aug-18 04:34N 39°26' W 075°32'8 7.8
2016-Aug-18 03:33N 39°33' W 075°32'7 7.3
2016-Aug-18 02:33N 39°33' W 075°42'8 8.3
2016-Aug-18 01:33N 39°31' W 075°53'10 9.6
2016-Aug-18 00:33N 39°25' W 076°02'1010.1
2016-Aug-17 23:33N 39°19' W 076°13'11 9.7
2016-Aug-17 22:27N 39°10' W 076°19'7 7.9
2016-Aug-17 21:33N 39°11' W 076°27'1 0.1
2016-Aug-17 07:30N 39°13' W 076°28'0 0.0
2016-Aug-17 02:33N 39°13' W 076°28'0 0.0
2016-Aug-16 13:14N 39°13' W 076°28'0 0.0
2016-Aug-16 12:33N 39°13' W 076°28'0 0.0
2016-Aug-16 11:33N 39°13' W 076°28'0 0.0
2016-Aug-16 10:30N 39°13' W 076°28'0 0.0
2016-Aug-16 09:23N 39°13' W 076°28'0 0.0
2016-Aug-16 08:21N 39°13' W 076°28'0 0.0
2016-Aug-16 07:23N 39°13' W 076°28'0 0.0
2016-Aug-16 04:32N 39°13' W 076°28'0 0.0
2016-Aug-16 03:18N 39°13' W 076°28'  

Dump ship's entire track history